02:56 Bike Moetz - Roppen - Oetz - Haiming - Moetz
Ort Moetz Datum 25.04.2010 12:43:06
Kategorie MTB
Distanz 44,19 Kilometer Steigung 194,3 Meter Gefälle -131,6 Meter
Gesamt Zeit 04:31:46 Aktiv 02:55:37 Pause 01:36:09
Durchs. Tempo 15,1 km/h Tempo max. 33,5 km/h Tempo min. 3,5 km/h
Kalorien 0 Durchs. HF 91 BPM HF max. 140 BPM
Wetter 22 °C ChanceRain
Ausrüstung Schwalbe - Racing Ralph hinten
Schwalbe - Racing Ralph vorne
Specialized - BG S-Works MTB
Specialized - Stumpjumper Comp
SwissStop - Disc17 Avid Juicy
Notiz Moetz - Roppen - Oetz - Haiming - Moetz ... Ausfahrt mit Diana und Daniel ... garmin connect
Splits
Distanz (km) Gesamt Zeit Split Zeit Split Tempo Split Tempo Höhenprofil (m)
1,00 00:03:31 00:03:31 00:03:31 17,1 -4,33
2,00 00:06:38 00:03:07 00:03:07 19,3 3,36
3,00 00:09:41 00:03:03 00:03:03 19,7 9,13
4,00 00:12:29 00:02:48 00:02:48 21,4 -3,85
5,00 00:15:28 00:02:59 00:02:59 20,1 2,88
6,00 00:18:31 00:03:03 00:03:03 19,7 3,85
7,00 00:21:48 00:03:17 00:03:17 18,3 8,65
8,00 00:27:26 00:05:38 00:05:38 10,7 43,74
9,00 00:30:56 00:03:30 00:03:30 17,1 4,33
10,00 00:33:46 00:02:50 00:02:50 21,2 -37,49
11,00 00:37:36 00:03:50 00:03:50 15,7 6,73
12,00 00:40:27 00:02:51 00:02:51 21,1 1,92
13,00 00:44:42 00:04:15 00:04:15 14,1 18,26
14,00 01:02:21 00:17:39 00:17:39 3,4 0,96
15,00 01:06:05 00:03:44 00:03:44 16,1 -8,17
16,00 01:13:21 00:07:16 00:07:16 8,3 -8,17
17,00 01:18:52 00:05:31 00:05:31 10,9 11,54
18,00 01:23:51 00:04:59 00:04:59 12,0 14,42
19,00 01:28:27 00:04:36 00:04:36 13,0 10,09
20,00 01:32:51 00:04:24 00:04:24 13,6 10,09
21,00 01:37:48 00:04:57 00:04:57 12,1 24,03
22,00 01:42:30 00:04:42 00:04:42 12,8 -0,96
23,00 01:47:04 00:04:34 00:04:34 13,1 11,06
24,00 01:53:35 00:06:31 00:06:31 9,2 5,29
25,00 03:18:02 01:24:27 01:24:27 0,7 -4,33
26,00 03:22:52 00:04:50 00:04:50 12,4 -15,38
27,00 03:26:45 00:03:53 00:03:53 15,5 -9,13
28,00 03:29:48 00:03:03 00:03:03 19,7 -15,38
29,00 03:33:26 00:03:38 00:03:38 16,5 -5,29
30,00 03:36:22 00:02:56 00:02:56 20,5 -15,38
31,00 03:39:52 00:03:30 00:03:30 17,1 -16,34
32,00 03:44:48 00:04:56 00:04:56 12,2 4,81
33,00 03:49:08 00:04:20 00:04:20 13,8 0,48
34,00 03:52:39 00:03:31 00:03:31 17,1 -9,13
35,00 03:58:00 00:05:21 00:05:21 11,2 -3,36
36,00 04:02:26 00:04:26 00:04:26 13,5 0,48
37,00 04:07:04 00:04:38 00:04:38 12,9 -20,19
38,00 04:10:54 00:03:50 00:03:50 15,7 -4,81
39,00 04:14:17 00:03:23 00:03:23 17,7 -5,77
40,00 04:17:52 00:03:35 00:03:35 16,7 0,48
41,00 04:21:44 00:03:52 00:03:52 15,5 -6,73
42,00 04:25:28 00:03:44 00:03:44 16,1 -1,44
43,00 04:28:02 00:02:34 00:02:34 23,4 -3,36
44,00 04:30:57 00:02:55 00:02:55 20,6 0,96